Αναφορές METAR Αεροδρομίων

 

LGTS - THESSALONIKI - GREECE
Ενημερώθηκε: 25/04/2018 01:20
Αραιές Νεφώσεις
Αραιές Νεφώσεις
 Ανεμος από Α
Ανεμος: Α 9 km/h
Θερμοκρασία: 14°C
Σημ. Δρόσου: 7°C
Υγρασία: 63%
Βαρόμετρο: 1015 hPa
Clouds: Αραιές Νεφώσεις
Visibility: 10 km
Cloud details: Αραιές Νεφώσεις 914 m
2018/04/24 22:20 LGTS 242220Z 10005KT 9999 FEW030 14/07 Q1015 NOSIG
LGLR - LARTISA - GREECE
Ενημερώθηκε: 25/04/2018 00:50
Αίθριος
Αίθριος
 Ανεμος από calm
Ανεμος: Απνοια
Θερμοκρασία: 16°C
Σημ. Δρόσου: 9°C
Υγρασία: 63%
Βαρόμετρο: 1015 hPa
Περίληψη: Αίθριος
Visibility: greater than 10 km
2018/04/24 21:50 LGLR 242150Z 00000KT CAVOK 16/09 Q1015 RMK FEW180 BLU
 
LGKZ - KOZANI - GREECE
Ενημερώθηκε: 24/04/2018 14:50
NOT Current
Αραιές Νεφώσεις
Αραιές Νεφώσεις
 Ανεμος από calm
Ανεμος: Απνοια
Θερμοκρασία: 26°C
Σημ. Δρόσου: 10°C
Υγρασία: 37%
Βαρόμετρο: 1018 hPa
Clouds: Αραιές Νεφώσεις
Visibility: 10 km
Cloud details: Αραιές Νεφώσεις 762 m
2018/04/24 11:50 LGKZ 241150Z 00000KT 9999 FEW025 26/10 Q1018
LGKV - KAVALA - GREECE
Ενημερώθηκε: 25/04/2018 00:50
Αραιές Νεφώσεις
Αραιές Νεφώσεις
 Ανεμος από ΝΔ
Ανεμος: ΝΔ 7 km/h
Θερμοκρασία: 15°C
Σημ. Δρόσου: 13°C
Υγρασία: 88%
Βαρόμετρο: 1014 hPa
Clouds: Αραιές Νεφώσεις
Visibility: 10 km
Cloud details: Αραιές Νεφώσεις 762 m
2018/04/24 21:50 LGKV 242150Z 23004KT 9999 FEW025 15/13 Q1014
 
LGIO - IOANNINA - GREECE
Ενημερώθηκε: 24/04/2018 22:20
NOT Current
Αραιές Νεφώσεις
Αραιές Νεφώσεις
 Ανεμος από varies
Ανεμος: varies 0 km/h
Θερμοκρασία: 16°C
Σημ. Δρόσου: 12°C
Υγρασία: 77%
Βαρόμετρο: 1018 hPa
Clouds: Αραιές Νεφώσεις
Visibility: 10 km
Cloud details: Αραιές Νεφώσεις 1219 m
2018/04/24 19:20 LGIO 241920Z /////KT 9999 FEW040 16/12 Q1018
LGBL - BOLOS - GREECE
Ενημερώθηκε: 25/04/2018 00:50
Αραιές Νεφώσεις
Αραιές Νεφώσεις
 Ανεμος από Δ
Ανεμος: Δ 6 km/h
Θερμοκρασία: 14°C
Σημ. Δρόσου: 8°C
Υγρασία: 67%
Βαρόμετρο: 1015 hPa
Clouds: Αραιές Νεφώσεις
Visibility: 10 km
Cloud details: Αραιές Νεφώσεις 1067 m
2018/04/24 21:50 LGBL 242150Z 26003KT 9999 FEW035 14/08 Q1015
 
LGMT - MITILINI - GREECE
Ενημερώθηκε: 24/04/2018 22:50
NOT Current
Αίθριος
Αίθριος
 Ανεμος από calm
Ανεμος: Απνοια
Θερμοκρασία: 18°C
Σημ. Δρόσου: 9°C
Υγρασία: 56%
Βαρόμετρο: 1015 hPa
Περίληψη: Αίθριος
Visibility: greater than 10 km
2018/04/24 19:50 LGMT 241950Z 00000KT CAVOK 18/09 Q1015
LGAV - ATHENS - GREECE
Ενημερώθηκε: 25/04/2018 01:20
Αίθριος
Αίθριος
 Ανεμος από ΑΝΑ
Ανεμος: ΑΝΑ 7 km/h
Θερμοκρασία: 16°C
Σημ. Δρόσου: 7°C
Υγρασία: 55%
Βαρόμετρο: 1016 hPa
Περίληψη: Αίθριος
Visibility: greater than 10 km
2018/04/24 22:20 LGAV 242220Z 11004KT 090V160 CAVOK 16/07 Q1016 NOSIG
 
LGRP - RODOS - GREECE
Ενημερώθηκε: 25/04/2018 01:20
Αραιές Νεφώσεις
Αραιές Νεφώσεις
 Ανεμος από ΝΔ
Ανεμος: ΝΔ 20 km/h
Θερμοκρασία: 18°C
Σημ. Δρόσου: 14°C
Υγρασία: 78%
Βαρόμετρο: 1013 hPa
Clouds: Αραιές Νεφώσεις
Visibility: 10 km
Cloud details: Αραιές Νεφώσεις 762 m
2018/04/24 22:20 LGRP 242220Z 23011KT 9999 FEW025 18/14 Q1013 NOSIG
LGIR - HRAKLIO/KRITI - GREECE
Ενημερώθηκε: 25/04/2018 01:20
Αίθριος
Αίθριος
 Ανεμος από Ν
Ανεμος: Ν 13 km/h
Θερμοκρασία: 14°C
Σημ. Δρόσου: 6°C
Υγρασία: 59%
Βαρόμετρο: 1015 hPa
Περίληψη: Αίθριος
Visibility: greater than 10 km
2018/04/24 22:20 LGIR 242220Z 18007KT CAVOK 14/06 Q1015 NOSIG
 
LGMK - MIKONOS - GREECE
Ενημερώθηκε: 25/04/2018 00:50
Αίθριος
Αίθριος
 Ανεμος από ΔΒΔ
Ανεμος: ΔΒΔ 11 km/h
Θερμοκρασία: 17°C
Σημ. Δρόσου: 12°C
Υγρασία: 73%
Βαρόμετρο: 1015 hPa
Περίληψη: Αίθριος
Visibility: greater than 10 km
2018/04/24 21:50 LGMK 242150Z 30006KT CAVOK 17/12 Q1015
LGKR - KERKIRA - GREECE
Ενημερώθηκε: 25/04/2018 01:20
Αίθριος
Αίθριος
 Ανεμος από Δ
Ανεμος: Δ 4 km/h
Θερμοκρασία: 15°C
Σημ. Δρόσου: 12°C
Υγρασία: 82%
Βαρόμετρο: 1017 hPa
Περίληψη: Αίθριος
Visibility: greater than 10 km
2018/04/24 22:20 LGKR 242220Z 26002KT CAVOK 15/12 Q1017 NOSIG